Time;durP1;ratioP1;P1;durP2;ratioP2;P2;SDS_P1;SDS_P2;PMS_P1;PMS_P2;Temp;Humidity;BMP_temperature;BMP_pressure;BME280_temperature;BME280_humidity;BME280_pressure;Samples;Min_cycle;Max_cycle;Signal;HPM_P1;HPM_P2
2022/07/01 06:29:22;;;;;;;14.48;10.20;;;22.80;94.30;;;;;;6168272;23;20211;-90
2022/07/01 06:31:50;;;;;;;17.58;10.32;;;22.90;94.30;;;;;;6088122;23;20171;-89
2022/07/01 06:34:40;;;;;;;13.50;10.15;;;22.80;94.30;;;;;;6083537;23;20210;-89
2022/07/01 06:37:21;;;;;;;17.48;10.63;;;22.80;94.50;;;;;;6110456;23;20136;-88
2022/07/01 06:39:50;;;;;;;17.80;10.63;;;22.80;94.60;;;;;;6084525;23;20162;-90
2022/07/01 06:45:55;;;;;;;14.68;8.95;;;22.80;94.80;;;;;;6050058;23;20605;-90
2022/07/01 06:48:20;;;;;;;12.15;9.73;;;22.80;94.70;;;;;;5996306;23;20186;-88
2022/07/01 06:51:15;;;;;;;12.13;9.07;;;22.90;94.60;;;;;;6043761;23;20210;-90
2022/07/01 06:53:51;;;;;;;12.63;9.25;;;22.80;94.70;;;;;;6011447;23;20158;-88
2022/07/01 06:56:26;;;;;;;13.93;9.98;;;22.90;94.40;;;;;;6047026;23;20228;-87
2022/07/01 06:58:54;;;;;;;10.10;8.50;;;22.90;94.50;;;;;;5983935;23;20229;-89
2022/07/01 07:01:20;;;;;;;14.68;9.77;;;22.90;94.60;;;;;;6029120;23;20664;-86
2022/07/01 07:03:48;;;;;;;16.80;9.38;;;22.90;94.40;;;;;;6054854;23;20222;-88
2022/07/01 07:06:17;;;;;;;12.90;9.70;;;22.90;94.40;;;;;;6055454;23;20207;-88
2022/07/01 07:08:44;;;;;;;11.57;9.32;;;23.00;94.50;;;;;;6052005;23;20164;-87
2022/07/01 07:11:10;;;;;;;11.30;8.88;;;22.90;94.30;;;;;;6048340;23;20169;-87
2022/07/01 07:13:36;;;;;;;9.75;8.73;;;22.90;94.30;;;;;;6083092;23;20165;-86
2022/07/01 07:16:02;;;;;;;14.45;9.45;;;22.90;94.40;;;;;;6136887;23;20471;-88
2022/07/01 07:18:28;;;;;;;12.18;9.43;;;22.90;94.40;;;;;;6112498;23;20150;-88
2022/07/01 07:20:55;;;;;;;11.73;8.43;;;22.90;94.50;;;;;;6136613;23;20143;-87
2022/07/01 07:23:20;;;;;;;13.45;9.05;;;22.90;94.50;;;;;;6112680;23;20593;-86
2022/07/01 07:25:46;;;;;;;13.65;9.20;;;22.80;94.60;;;;;;6111647;23;20150;-88
2022/07/01 07:28:12;;;;;;;9.82;7.88;;;22.90;94.40;;;;;;6136723;23;20201;-87
2022/07/01 07:30:38;;;;;;;13.23;8.95;;;23.00;94.30;;;;;;6135954;23;20260;-87
2022/07/01 07:33:05;;;;;;;14.93;8.57;;;22.90;94.50;;;;;;6160590;23;20202;-87
2022/07/01 07:35:31;;;;;;;12.40;8.18;;;22.90;94.40;;;;;;6111902;23;20487;-87
2022/07/01 07:37:56;;;;;;;10.40;8.25;;;22.90;94.50;;;;;;6112312;23;20165;-87
2022/07/01 07:40:22;;;;;;;12.10;7.85;;;22.80;94.80;;;;;;6111575;23;20153;-88
2022/07/01 07:42:48;;;;;;;11.75;8.60;;;22.80;94.90;;;;;;6112707;23;20217;-86
2022/07/01 07:45:14;;;;;;;10.18;8.43;;;22.80;94.80;;;;;;6111398;23;20157;-87
2022/07/01 07:47:44;;;;;;;11.13;8.90;;;22.90;94.70;;;;;;6136040;23;20637;-88
2022/07/01 07:50:09;;;;;;;9.93;8.13;;;22.90;94.80;;;;;;6111544;23;20602;-87
2022/07/01 07:52:36;;;;;;;10.13;8.75;;;22.80;94.70;;;;;;6112698;23;20201;-89
2022/07/01 07:55:03;;;;;;;11.32;8.02;;;22.90;94.60;;;;;;6161249;23;20569;-88
2022/07/01 07:57:30;;;;;;;10.32;8.27;;;22.90;94.70;;;;;;6137018;23;20134;-87
2022/07/01 07:59:56;;;;;;;9.70;7.90;;;22.90;94.80;;;;;;6140782;23;20141;-88
2022/07/01 08:02:22;;;;;;;12.52;8.23;;;22.90;94.60;;;;;;6117597;23;20178;-87
2022/07/01 08:04:48;;;;;;;10.70;8.00;;;22.80;95.10;;;;;;6140995;23;20139;-87
2022/07/01 08:07:14;;;;;;;8.82;7.80;;;22.90;94.70;;;;;;6165464;23;20145;-88
2022/07/01 08:09:45;;;;;;;10.50;7.63;;;22.90;94.60;;;;;;6116260;23;20257;-86
2022/07/01 08:12:11;;;;;;;10.63;8.52;;;22.90;94.50;;;;;;6141334;23;20162;-87
2022/07/01 08:14:37;;;;;;;8.95;7.72;;;22.90;94.70;;;;;;6113016;23;20145;-88
2022/07/01 08:17:03;;;;;;;10.13;7.85;;;22.80;94.90;;;;;;6114205;23;20139;-88
2022/07/01 08:19:29;;;;;;;8.98;7.90;;;22.80;95.00;;;;;;6137855;23;20214;-87
2022/07/01 08:21:54;;;;;;;9.60;7.95;;;22.90;94.90;;;;;;6110899;23;20489;-89
2022/07/01 08:24:21;;;;;;;9.30;8.30;;;22.90;94.80;;;;;;6136940;23;20197;-86
2022/07/01 08:26:47;;;;;;;10.05;8.55;;;22.80;94.80;;;;;;6111117;23;20150;-85
2022/07/01 08:29:12;;;;;;;9.38;7.82;;;22.90;94.60;;;;;;6112302;23;20222;-86
2022/07/01 08:31:38;;;;;;;9.30;8.02;;;22.80;94.40;;;;;;6136357;23;20154;-89
2022/07/01 08:34:05;;;;;;;9.82;7.97;;;22.90;94.20;;;;;;6162907;23;20235;-87
2022/07/01 08:36:31;;;;;;;10.10;7.85;;;22.90;94.30;;;;;;6136814;23;20127;-88
2022/07/01 08:38:57;;;;;;;9.20;8.13;;;22.90;94.30;;;;;;6112137;23;20150;-86
2022/07/01 08:41:23;;;;;;;11.57;8.68;;;22.90;94.30;;;;;;6136501;23;20146;-87
2022/07/01 08:43:49;;;;;;;10.32;8.02;;;22.90;94.40;;;;;;6136728;23;20138;-86
2022/07/01 08:46:15;;;;;;;10.40;8.52;;;22.90;94.50;;;;;;6114615;23;20562;-86
2022/07/01 08:48:44;;;;;;;10.85;8.40;;;22.90;94.30;;;;;;6143582;23;20151;-88
2022/07/01 08:51:11;;;;;;;9.00;7.95;;;22.90;94.10;;;;;;6114469;23;20174;-87
2022/07/01 08:53:37;;;;;;;9.95;8.30;;;23.00;94.00;;;;;;6113168;23;20150;-87
2022/07/01 08:58:40;;;;;;;9.07;7.82;;;22.90;94.20;;;;;;6140678;23;20571;-88
2022/07/01 09:01:15;;;;;;;11.13;8.55;;;22.90;94.20;;;;;;6160552;23;20150;-88
2022/07/01 09:03:42;;;;;;;10.68;8.70;;;22.90;94.40;;;;;;6111845;23;20150;-88
2022/07/01 09:06:13;;;;;;;10.95;8.68;;;22.80;94.60;;;;;;6136664;23;20203;-89
2022/07/01 09:08:40;;;;;;;10.20;8.60;;;22.80;94.70;;;;;;6138987;23;20245;-86
2022/07/01 09:11:19;;;;;;;10.55;8.65;;;22.80;95.00;;;;;;6113608;23;20610;-88
2022/07/01 09:13:45;;;;;;;9.68;8.30;;;22.70;94.90;;;;;;6116553;23;20151;-88
2022/07/01 09:16:13;;;;;;;9.32;8.02;;;22.80;94.70;;;;;;6162821;23;20131;-88
2022/07/01 09:18:39;;;;;;;10.13;8.00;;;22.80;94.70;;;;;;6135419;23;20153;-87
2022/07/01 09:21:10;;;;;;;11.30;8.77;;;22.80;94.70;;;;;;6136216;23;20523;-86
2022/07/01 09:23:40;;;;;;;9.70;8.05;;;22.80;94.80;;;;;;6136800;23;20163;-87
2022/07/01 09:26:06;;;;;;;8.90;7.80;;;22.80;95.00;;;;;;6136819;23;20190;-86
2022/07/01 09:28:32;;;;;;;9.70;8.70;;;22.80;95.10;;;;;;6137124;23;20155;-87
2022/07/01 09:31:00;;;;;;;10.13;8.50;;;22.80;95.00;;;;;;6107571;23;20203;-88
2022/07/01 09:33:28;;;;;;;9.38;8.38;;;22.70;95.30;;;;;;6131366;23;20552;-87
2022/07/01 09:35:55;;;;;;;9.95;8.85;;;22.70;95.20;;;;;;6107365;23;20233;-87
2022/07/01 09:38:23;;;;;;;10.73;8.82;;;22.70;95.40;;;;;;6131898;23;20128;-86
2022/07/01 09:40:51;;;;;;;11.73;8.80;;;22.70;95.40;;;;;;6131051;23;20135;-86
2022/07/01 09:43:19;;;;;;;9.57;8.55;;;22.80;95.00;;;;;;6154507;23;20223;-85
2022/07/01 09:45:54;;;;;;;11.25;8.50;;;22.80;95.00;;;;;;6129821;23;20151;-85
2022/07/01 09:48:20;;;;;;;10.65;8.88;;;22.80;95.20;;;;;;6137575;23;20142;-86
2022/07/01 09:50:47;;;;;;;10.57;8.85;;;22.80;95.30;;;;;;6139500;23;20187;-86
2022/07/01 09:53:13;;;;;;;9.75;8.68;;;22.80;95.50;;;;;;6140451;23;20579;-87
2022/07/01 09:55:40;;;;;;;9.52;8.52;;;22.80;95.30;;;;;;6114809;23;20143;-85
2022/07/01 09:58:06;;;;;;;9.02;8.02;;;22.90;95.60;;;;;;6114233;23;20150;-88
2022/07/01 10:00:36;;;;;;;9.85;8.35;;;22.90;95.20;;;;;;6140315;23;20136;-88
2022/07/01 10:03:03;;;;;;;10.40;8.85;;;22.80;95.50;;;;;;6116668;23;20158;-87
2022/07/01 10:05:28;;;;;;;10.77;8.77;;;22.90;95.10;;;;;;6136878;23;20241;-88
2022/07/01 10:08:36;;;;;;;9.68;8.60;;;22.90;95.20;;;;;;6133282;23;20566;-87
2022/07/01 10:11:35;;;;;;;10.65;8.98;;;22.90;95.00;;;;;;6132661;23;20179;-87
2022/07/01 10:14:03;;;;;;;10.07;8.73;;;22.90;95.40;;;;;;6135514;23;20211;-88
2022/07/01 10:16:34;;;;;;;10.57;9.48;;;22.90;95.30;;;;;;6132983;23;20540;-87
2022/07/01 10:19:26;;;;;;;9.93;8.85;;;22.90;95.50;;;;;;6132496;23;20132;-88
2022/07/01 10:21:55;;;;;;;11.55;8.95;;;22.90;95.40;;;;;;6157656;23;20179;-87
2022/07/01 12:18:05;;;;;;;14.25;11.27;;;23.30;94.10;;;;;;6212674;22;20679;-88
2022/07/01 12:20:50;;;;;;;15.52;12.40;;;23.30;94.20;;;;;;6140127;23;20166;-87
2022/07/01 12:23:18;;;;;;;13.88;10.95;;;23.30;94.20;;;;;;6085528;23;20463;-87
2022/07/01 12:25:56;;;;;;;14.50;12.13;;;23.30;94.20;;;;;;6080885;23;20152;-89
2022/07/01 12:29:09;;;;;;;15.02;11.88;;;23.30;94.20;;;;;;6082483;23;20238;-88
2022/07/01 12:31:34;;;;;;;16.40;11.73;;;23.30;94.50;;;;;;6084617;23;20269;-88
2022/07/01 12:34:01;;;;;;;15.68;11.88;;;23.20;94.80;;;;;;6080685;23;20523;-88
2022/07/01 12:36:32;;;;;;;15.63;11.98;;;23.20;94.80;;;;;;6081062;23;20144;-88
2022/07/01 12:39:36;;;;;;;13.05;10.93;;;23.20;94.90;;;;;;6080834;23;20465;-88
2022/07/01 12:45:38;;;;;;;14.98;11.45;;;23.20;95.10;;;;;;5962235;24;20160;-87
2022/07/01 12:48:06;;;;;;;12.77;10.93;;;23.20;94.70;;;;;;5959942;24;20152;-89
2022/07/01 12:50:36;;;;;;;13.63;10.30;;;23.20;94.70;;;;;;5914806;24;20192;-89
2022/07/01 12:53:08;;;;;;;14.23;11.38;;;23.20;94.60;;;;;;5938487;24;20164;-89
2022/07/01 12:55:41;;;;;;;15.35;11.43;;;23.20;94.40;;;;;;5909209;24;20216;-89
2022/07/01 12:58:10;;;;;;;14.13;11.77;;;23.20;94.20;;;;;;5879457;24;20172;-89
2022/07/01 13:00:41;;;;;;;13.50;11.13;;;23.20;94.40;;;;;;5827544;24;20179;-89
2022/07/01 13:03:09;;;;;;;12.73;11.07;;;23.20;94.60;;;;;;5802997;24;20201;-89
2022/07/01 13:05:39;;;;;;;13.88;11.07;;;23.20;94.60;;;;;;5800462;24;20596;-88
2022/07/01 13:08:05;;;;;;;14.15;11.38;;;23.20;94.70;;;;;;5820398;24;20164;-88
2022/07/01 13:10:32;;;;;;;14.35;10.85;;;23.20;94.80;;;;;;5798952;24;20195;-88
2022/07/01 13:12:59;;;;;;;13.35;10.98;;;23.20;94.60;;;;;;5786944;24;20160;-88
2022/07/01 13:15:26;;;;;;;15.65;11.52;;;23.20;94.30;;;;;;5788533;24;20167;-88
2022/07/01 13:17:52;;;;;;;14.10;11.38;;;23.20;94.30;;;;;;5788575;24;20205;-88
2022/07/01 13:20:24;;;;;;;14.60;11.05;;;23.20;94.30;;;;;;5793458;24;20614;-88
2022/07/01 13:22:54;;;;;;;13.90;11.57;;;23.20;94.60;;;;;;5837533;24;20211;-89
2022/07/01 13:25:55;;;;;;;13.52;11.32;;;23.20;94.60;;;;;;5858285;24;20541;-89
2022/07/01 14:10:04;;;;;;;16.98;13.30;;;23.30;93.40;;;;;;6137098;23;20222;-89
2022/07/01 14:12:31;;;;;;;18.10;13.30;;;23.30;93.40;;;;;;6157519;23;20151;-90
2022/07/01 14:15:01;;;;;;;16.35;13.30;;;23.30;93.40;;;;;;6115573;23;20301;-88
2022/07/01 14:17:37;;;;;;;;;;;;;;;;;;;;;
2022/07/01 14:20:26;;;;;;;18.50;13.60;;;23.40;93.20;;;;;;6042360;23;20196;-88
2022/07/01 14:23:26;;;;;;;20.30;14.02;;;23.40;92.90;;;;;;5963562;24;20159;-89
2022/07/01 14:26:06;;;;;;;16.42;13.85;;;23.40;93.00;;;;;;5911385;24;20513;-91
2022/07/01 14:29:01;;;;;;;17.63;13.90;;;23.30;93.20;;;;;;5940761;24;20227;-91
2022/07/01 14:35:32;;;;;;;;;;;;;;;;;;;;;
2022/07/01 14:38:38;;;;;;;18.48;14.43;;;23.40;93.60;;;;;;5737831;25;20193;-90
2022/07/01 16:59:49;;;;;;;18.35;14.77;;;23.50;90.60;;;;;;6140461;22;1387208;-91
2022/07/01 17:02:20;;;;;;;19.60;15.30;;;23.40;90.60;;;;;;6132667;23;20202;-91
2022/07/01 17:04:57;;;;;;;21.00;15.45;;;23.50;90.50;;;;;;6135811;23;20238;-89
2022/07/01 17:07:43;;;;;;;20.15;15.60;;;23.50;90.60;;;;;;6115721;23;20194;-88
2022/07/01 17:11:03;;;;;;;17.73;14.95;;;23.50;90.60;;;;;;6135682;23;20229;-87
2022/07/01 17:13:38;;;;;;;18.25;14.57;;;23.50;90.60;;;;;;6057757;23;20154;-90
2022/07/01 17:17:00;;;;;;;23.25;16.15;;;23.50;90.70;;;;;;6033881;23;20209;-91
2022/07/01 17:19:43;;;;;;;21.70;16.02;;;23.50;90.70;;;;;;5957244;24;20200;-93
2022/07/01 17:22:29;;;;;;;20.80;16.35;;;23.50;90.70;;;;;;5902381;24;20164;-91
2022/07/01 17:25:15;;;;;;;19.90;15.90;;;23.50;90.70;;;;;;5929699;24;20161;-91
2022/07/01 17:28:28;;;;;;;22.38;17.02;;;23.40;90.70;;;;;;5925334;24;20547;-91
2022/07/01 17:31:26;;;;;;;;;;;;;;;;;;;;;
2022/07/01 17:33:55;;;;;;;20.73;15.73;;;23.50;91.10;;;;;;5922084;24;20184;-88
2022/07/01 17:36:26;;;;;;;20.42;15.88;;;23.40;91.20;;;;;;5932435;24;20176;-89
2022/07/01 17:38:57;;;;;;;19.52;15.80;;;23.50;91.20;;;;;;5882931;24;20174;-90
2022/07/01 17:41:32;;;;;;;19.48;15.95;;;23.50;91.30;;;;;;5874207;24;20169;-90
2022/07/01 17:44:17;;;;;;;20.63;15.70;;;23.50;91.30;;;;;;5853252;24;20153;-92
2022/07/01 17:47:02;;;;;;;20.85;16.10;;;23.50;91.40;;;;;;5843905;24;20235;-91
2022/07/01 17:49:56;;;;;;;19.83;16.30;;;23.50;91.50;;;;;;5984705;23;20157;-90
2022/07/01 17:52:22;;;;;;;22.13;16.98;;;23.40;91.70;;;;;;6031863;23;20161;-91
2022/07/01 17:54:59;;;;;;;21.23;16.50;;;23.40;91.80;;;;;;5987230;23;20174;-90
2022/07/01 17:57:33;;;;;;;22.52;16.92;;;23.40;92.10;;;;;;5931945;24;20593;-91
2022/07/01 18:00:18;;;;;;;20.63;16.48;;;23.40;92.30;;;;;;5849428;24;20278;-91
2022/07/01 18:02:50;;;;;;;24.48;17.20;;;23.40;92.40;;;;;;5775947;24;20226;-92
2022/07/01 18:05:21;;;;;;;21.45;16.05;;;23.40;92.50;;;;;;5767883;24;20168;-90
2022/07/01 18:07:57;;;;;;;21.20;16.25;;;23.40;92.50;;;;;;5769063;24;20235;-91
2022/07/01 18:10:50;;;;;;;20.00;16.08;;;23.40;92.60;;;;;;5746982;24;20196;-89
2022/07/01 18:13:25;;;;;;;19.40;15.27;;;23.40;92.70;;;;;;5765951;24;20610;-87
2022/07/01 18:15:54;;;;;;;21.40;16.20;;;23.40;92.80;;;;;;5769836;24;20172;-89
2022/07/01 18:18:25;;;;;;;20.98;15.68;;;23.40;92.90;;;;;;5770242;24;20591;-90
2022/07/01 18:20:54;;;;;;;21.83;16.67;;;23.40;93.10;;;;;;5772333;24;20192;-89
2022/07/01 18:23:30;;;;;;;19.27;15.70;;;23.30;93.30;;;;;;5797175;24;20171;-89
2022/07/01 18:26:00;;;;;;;18.90;15.52;;;23.30;93.40;;;;;;5799352;24;20189;-88
2022/07/01 18:28:37;;;;;;;17.73;14.80;;;23.30;93.50;;;;;;5876625;24;20143;-89
2022/07/01 18:31:07;;;;;;;21.30;16.65;;;23.30;93.50;;;;;;5903269;24;20243;-88
2022/07/01 18:33:37;;;;;;;19.63;15.93;;;23.30;93.60;;;;;;5910067;24;20160;-89
2022/07/01 18:36:08;;;;;;;20.23;15.75;;;23.30;93.60;;;;;;5910217;24;20251;-88
2022/07/01 18:38:36;;;;;;;20.60;14.70;;;23.30;93.70;;;;;;5964607;24;20163;-90
2022/07/01 18:41:05;;;;;;;19.38;15.52;;;23.30;93.70;;;;;;6012019;23;20184;-88
2022/07/01 18:43:34;;;;;;;20.85;15.18;;;23.20;93.70;;;;;;6021610;23;20252;-90
2022/07/01 18:46:02;;;;;;;20.20;15.15;;;23.30;93.70;;;;;;6021176;23;20181;-89
2022/07/01 18:48:29;;;;;;;18.60;14.80;;;23.30;93.80;;;;;;6021352;23;20189;-89
2022/07/01 18:50:56;;;;;;;17.65;14.43;;;23.20;93.80;;;;;;6053469;23;20222;-88
2022/07/01 18:53:26;;;;;;;20.08;15.23;;;23.20;94.00;;;;;;6076951;23;20149;-88
2022/07/01 18:56:01;;;;;;;19.45;15.05;;;23.20;94.10;;;;;;6077464;23;20166;-89
2022/07/01 18:58:27;;;;;;;18.95;15.20;;;23.20;94.20;;;;;;6086746;23;20614;-88
2022/07/01 19:00:53;;;;;;;18.23;13.65;;;23.20;94.20;;;;;;6111291;23;20202;-88
2022/07/01 19:03:21;;;;;;;16.75;13.88;;;23.20;94.30;;;;;;6112209;23;20214;-88
2022/07/01 19:05:47;;;;;;;19.25;14.68;;;23.20;94.30;;;;;;6113187;23;20295;-90
2022/07/01 19:08:13;;;;;;;18.92;15.15;;;23.20;94.30;;;;;;6136299;23;20131;-89
2022/07/01 19:10:39;;;;;;;18.38;14.27;;;23.20;94.40;;;;;;6136766;23;20530;-88
2022/07/01 19:13:07;;;;;;;18.05;13.65;;;23.20;94.60;;;;;;6140446;23;20131;-87
2022/07/01 19:15:35;;;;;;;17.85;12.55;;;23.20;94.90;;;;;;6113912;23;20162;-88
2022/07/01 19:18:08;;;;;;;14.40;11.70;;;23.20;94.30;;;;;;6114459;23;20216;-89
2022/07/01 19:20:55;;;;;;;14.63;12.55;;;23.30;94.00;;;;;;6141198;23;20159;-87
2022/07/01 19:23:22;;;;;;;17.38;14.25;;;23.40;93.80;;;;;;6127014;23;20140;-87
2022/07/01 19:25:49;;;;;;;17.88;13.82;;;23.40;93.90;;;;;;6143392;23;20494;-87
2022/07/01 19:28:16;;;;;;;15.32;12.77;;;23.30;93.90;;;;;;6117885;23;20175;-87
2022/07/01 19:30:44;;;;;;;15.35;13.20;;;23.40;93.70;;;;;;6094575;23;20211;-86
2022/07/01 19:33:12;;;;;;;16.40;13.07;;;23.50;93.40;;;;;;6095755;23;20155;-86
2022/07/01 19:35:40;;;;;;;15.00;12.38;;;23.50;93.50;;;;;;6096913;23;20150;-87
2022/07/01 19:38:10;;;;;;;17.25;12.38;;;23.60;93.40;;;;;;6120159;23;20151;-87
2022/07/01 19:40:37;;;;;;;14.80;11.65;;;23.60;93.30;;;;;;6120772;23;20132;-88
2022/07/01 19:43:03;;;;;;;13.35;11.05;;;23.50;93.30;;;;;;6094749;23;20182;-88
2022/07/01 19:45:31;;;;;;;14.43;12.20;;;23.50;93.40;;;;;;6119474;23;20135;-87
2022/07/01 19:47:58;;;;;;;15.15;12.30;;;23.50;93.40;;;;;;6119508;23;20550;-87
2022/07/01 19:50:27;;;;;;;17.42;12.48;;;23.40;93.50;;;;;;6118139;23;20144;-87
2022/07/01 19:52:59;;;;;;;15.20;12.77;;;23.40;93.60;;;;;;6114723;23;20152;-87
2022/07/01 19:55:27;;;;;;;14.85;12.35;;;23.40;93.70;;;;;;6116887;23;20588;-87
2022/07/01 19:57:55;;;;;;;13.38;11.90;;;23.30;93.80;;;;;;6091735;23;20623;-87
2022/07/01 20:00:31;;;;;;;14.32;12.57;;;23.30;93.80;;;;;;6113773;23;20218;-87
2022/07/01 20:03:02;;;;;;;13.13;11.43;;;23.40;93.70;;;;;;6086657;23;20152;-86
2022/07/01 20:05:32;;;;;;;13.63;11.73;;;23.40;93.40;;;;;;6085956;23;20153;-87
2022/07/01 20:08:00;;;;;;;13.38;11.98;;;23.40;93.30;;;;;;6086646;23;20152;-87
2022/07/01 20:10:41;;;;;;;13.07;11.18;;;23.50;93.30;;;;;;6085906;23;20250;-88
2022/07/01 20:13:08;;;;;;;14.15;11.98;;;23.50;93.30;;;;;;6085649;23;20596;-87
2022/07/01 20:15:33;;;;;;;13.30;11.32;;;23.40;93.20;;;;;;6052440;23;20230;-87
2022/07/01 20:18:06;;;;;;;11.45;10.02;;;23.40;93.30;;;;;;6028933;23;20154;-88
2022/07/01 20:20:37;;;;;;;12.60;11.20;;;23.40;93.20;;;;;;6029011;23;20218;-87
2022/07/01 20:23:10;;;;;;;13.25;11.80;;;23.40;93.20;;;;;;6052025;23;20205;-87
2022/07/01 20:25:39;;;;;;;12.43;10.80;;;23.40;93.30;;;;;;6026710;23;20178;-88
2022/07/01 20:28:10;;;;;;;12.57;11.02;;;23.40;93.10;;;;;;6023629;23;20155;-87
2022/07/01 20:30:36;;;;;;;12.57;10.60;;;23.40;93.20;;;;;;6001129;23;20150;-87
2022/07/01 20:33:03;;;;;;;13.50;11.45;;;23.40;93.10;;;;;;5995458;23;20159;-87
2022/07/01 20:35:30;;;;;;;16.63;13.68;;;23.40;93.00;;;;;;5973399;24;20171;-87
2022/07/01 20:38:03;;;;;;;15.55;12.80;;;23.20;93.70;;;;;;5973594;24;20187;-87
2022/07/01 20:40:29;;;;;;;15.30;12.60;;;23.20;94.20;;;;;;5973608;24;20156;-87
2022/07/01 20:42:59;;;;;;;14.13;12.27;;;23.10;94.50;;;;;;5972877;23;20152;-87
2022/07/01 20:45:26;;;;;;;14.63;12.43;;;23.10;94.70;;;;;;5985502;23;20601;-86
2022/07/01 20:47:58;;;;;;;14.73;12.48;;;23.00;94.80;;;;;;6039543;23;20156;-87
2022/07/01 20:50:28;;;;;;;14.38;12.75;;;23.10;94.90;;;;;;6086932;23;20176;-86
2022/07/01 20:52:56;;;;;;;16.50;13.63;;;23.00;95.10;;;;;;6062644;23;20156;-86
2022/07/01 20:55:23;;;;;;;15.98;13.32;;;23.00;95.40;;;;;;6086651;23;20148;-87
2022/07/01 20:57:50;;;;;;;17.00;13.93;;;23.00;95.50;;;;;;6085990;23;20172;-87
2022/07/01 21:00:19;;;;;;;15.07;12.60;;;23.00;95.50;;;;;;6124609;23;20191;-87
2022/07/01 21:02:45;;;;;;;14.55;12.73;;;23.00;95.50;;;;;;6120156;23;20151;-86
2022/07/01 21:05:24;;;;;;;16.38;13.88;;;23.00;95.60;;;;;;6120006;23;20167;-87
2022/07/01 21:07:53;;;;;;;18.15;14.23;;;23.00;95.50;;;;;;6119762;23;20260;-87
2022/07/01 21:10:26;;;;;;;17.02;14.02;;;22.90;95.70;;;;;;6119772;23;20158;-87
2022/07/01 21:12:57;;;;;;;18.92;14.93;;;23.00;95.70;;;;;;6119800;23;20156;-87
2022/07/01 21:15:34;;;;;;;16.60;14.07;;;23.00;95.70;;;;;;6090797;23;20159;-88
2022/07/01 21:18:01;;;;;;;16.67;13.95;;;22.90;95.60;;;;;;6065325;23;20239;-87
2022/07/01 21:20:32;;;;;;;17.02;13.80;;;23.00;95.70;;;;;;6087342;23;20270;-87
2022/07/01 21:23:00;;;;;;;16.27;13.82;;;22.90;95.80;;;;;;6062560;23;20153;-86
2022/07/01 21:25:27;;;;;;;17.83;15.05;;;22.90;95.70;;;;;;6060550;23;20153;-87
2022/07/01 21:28:01;;;;;;;16.65;13.63;;;22.90;95.80;;;;;;6028755;23;20187;-87
2022/07/01 21:30:27;;;;;;;17.33;14.55;;;22.90;95.90;;;;;;6027993;23;20605;-86
2022/07/01 21:33:00;;;;;;;16.40;14.20;;;22.90;95.90;;;;;;6027694;23;20218;-87
2022/07/01 21:35:26;;;;;;;17.50;14.40;;;22.90;95.90;;;;;;6051749;23;20276;-87
2022/07/01 21:37:54;;;;;;;16.85;14.25;;;22.90;95.90;;;;;;6005367;23;20158;-87
2022/07/01 21:40:30;;;;;;;16.13;13.20;;;22.90;95.90;;;;;;6028956;23;20158;-87
2022/07/01 21:42:59;;;;;;;16.45;13.88;;;22.90;95.70;;;;;;6030263;23;20201;-87
2022/07/01 21:45:25;;;;;;;16.70;13.80;;;22.90;95.70;;;;;;6029132;23;20154;-87
2022/07/01 21:47:59;;;;;;;15.85;13.55;;;23.00;95.70;;;;;;6028553;23;20161;-87
2022/07/01 21:50:27;;;;;;;15.65;13.45;;;22.90;95.50;;;;;;6029438;23;20135;-87
2022/07/01 21:52:58;;;;;;;16.05;13.45;;;22.90;95.60;;;;;;6060644;23;20149;-87
2022/07/01 21:55:25;;;;;;;16.83;13.65;;;22.90;95.60;;;;;;6058246;23;20177;-87
2022/07/01 21:57:56;;;;;;;15.85;13.38;;;22.90;95.50;;;;;;6056230;23;20609;-87
2022/07/01 22:00:23;;;;;;;17.00;14.00;;;22.90;95.60;;;;;;5994113;23;20206;-87
2022/07/01 22:02:49;;;;;;;18.42;13.80;;;22.90;95.60;;;;;;5994231;24;20163;-87
2022/07/01 22:05:15;;;;;;;18.40;14.77;;;22.90;95.60;;;;;;5995094;24;20156;-88
2022/07/01 22:07:42;;;;;;;15.27;12.95;;;22.90;95.60;;;;;;5939464;24;20376;-87
2022/07/01 22:10:12;;;;;;;16.33;14.13;;;22.90;95.60;;;;;;5916819;24;20160;-87
2022/07/01 22:12:43;;;;;;;16.05;13.57;;;22.90;95.70;;;;;;5915838;24;20161;-87
2022/07/01 22:15:20;;;;;;;16.45;14.05;;;22.90;95.60;;;;;;5917348;24;20569;-87
2022/07/01 22:17:50;;;;;;;17.58;14.18;;;22.90;95.50;;;;;;5916010;24;20156;-87
2022/07/01 22:20:18;;;;;;;19.67;14.65;;;23.00;95.60;;;;;;5940177;24;20601;-87
2022/07/01 22:22:46;;;;;;;16.17;13.88;;;22.90;95.50;;;;;;5938703;24;20560;-89
2022/07/01 22:25:13;;;;;;;16.52;14.40;;;22.90;95.60;;;;;;5942588;24;20269;-87
2022/07/01 22:27:39;;;;;;;15.75;13.65;;;22.80;95.60;;;;;;5966740;24;20206;-87
2022/07/01 22:30:27;;;;;;;16.75;14.23;;;22.90;95.70;;;;;;5990226;24;20156;-87
2022/07/01 22:32:55;;;;;;;16.67;14.10;;;22.90;95.60;;;;;;5999892;23;20182;-88
2022/07/01 22:35:21;;;;;;;16.90;13.75;;;22.80;95.60;;;;;;6006640;23;20159;-87
2022/07/01 22:37:53;;;;;;;15.95;14.18;;;22.90;95.60;;;;;;5943500;24;20164;-87
2022/07/01 22:40:19;;;;;;;16.52;14.07;;;22.90;95.60;;;;;;5945387;24;20160;-88
2022/07/01 22:42:45;;;;;;;18.00;15.18;;;22.90;95.60;;;;;;5944467;24;20156;-87
2022/07/01 22:45:12;;;;;;;19.42;15.02;;;22.90;95.60;;;;;;5973695;23;20159;-88
2022/07/01 22:47:42;;;;;;;16.70;13.80;;;22.90;95.60;;;;;;5999495;23;20205;-87
2022/07/01 22:50:18;;;;;;;18.52;15.07;;;22.90;95.50;;;;;;5999506;23;20582;-87
2022/07/01 22:53:13;;;;;;;17.85;14.60;;;22.90;95.50;;;;;;6000590;23;20154;-87
2022/07/01 22:55:51;;;;;;;18.20;14.50;;;22.90;95.50;;;;;;5999688;23;20165;-87
2022/07/01 22:58:22;;;;;;;17.38;14.85;;;22.80;95.60;;;;;;5977306;23;20179;-87
2022/07/01 23:00:52;;;;;;;19.70;15.90;;;22.90;95.70;;;;;;6000198;23;20201;-87
2022/07/01 23:03:19;;;;;;;17.02;14.13;;;22.90;95.60;;;;;;5999546;23;20165;-87
2022/07/01 23:05:52;;;;;;;18.85;14.70;;;22.90;95.50;;;;;;6002953;23;20160;-87
2022/07/01 23:08:31;;;;;;;17.33;14.90;;;22.90;95.70;;;;;;6045148;23;20633;-88
2022/07/01 23:10:56;;;;;;;16.02;13.90;;;22.90;95.60;;;;;;6146491;23;20151;-87
2022/07/01 23:13:37;;;;;;;17.40;14.98;;;22.90;95.70;;;;;;6121014;23;20155;-87
2022/07/01 23:19:10;;;;;;;16.50;14.43;;;22.80;95.60;;;;;;6128443;23;20203;-87
2022/07/01 23:21:36;;;;;;;16.50;14.02;;;22.80;95.70;;;;;;6097334;23;20163;-87
2022/07/01 23:24:06;;;;;;;16.52;14.60;;;22.80;95.60;;;;;;6116166;23;20159;-87
2022/07/01 23:26:34;;;;;;;16.63;14.52;;;22.80;95.60;;;;;;6139709;23;20195;-87
2022/07/01 23:29:00;;;;;;;16.77;13.98;;;22.80;95.70;;;;;;6091393;23;20159;-87
2022/07/01 23:31:27;;;;;;;16.65;14.02;;;22.80;95.40;;;;;;6116106;23;20144;-87
2022/07/01 23:34:12;;;;;;;17.25;14.52;;;22.80;95.50;;;;;;6090868;23;20307;-87
2022/07/01 23:36:40;;;;;;;16.42;14.50;;;22.80;95.60;;;;;;6116704;23;20136;-88
2022/07/01 23:39:08;;;;;;;17.23;14.85;;;22.80;95.70;;;;;;6116510;23;20159;-87
2022/07/01 23:41:34;;;;;;;18.42;15.07;;;22.90;95.80;;;;;;6116417;23;20152;-87
2022/07/01 23:44:00;;;;;;;17.55;14.70;;;22.80;95.70;;;;;;6115264;23;20615;-88
2022/07/01 23:46:29;;;;;;;17.67;14.43;;;22.80;95.70;;;;;;6115703;23;20168;-87
2022/07/01 23:48:55;;;;;;;18.00;15.13;;;22.80;95.60;;;;;;6092292;23;20159;-87
2022/07/01 23:51:24;;;;;;;17.02;14.30;;;22.80;95.70;;;;;;6091304;23;20224;-89
2022/07/01 23:54:00;;;;;;;16.92;14.32;;;22.80;95.40;;;;;;6092374;23;20650;-87
2022/07/01 23:56:30;;;;;;;17.25;14.90;;;22.80;95.70;;;;;;6120779;23;20151;-88
2022/07/01 23:59:03;;;;;;;16.20;13.93;;;22.80;95.70;;;;;;6120662;23;20151;-87
